createdAt,value
2023-02-09T00:02:14.970Z,13.30
2023-02-09T00:04:46.923Z,14.30
2023-02-09T00:07:18.909Z,13.90
2023-02-09T00:09:51.838Z,13.60
2023-02-09T00:12:42.422Z,13.30
2023-02-09T00:15:15.049Z,13.30
2023-02-09T00:17:46.961Z,14.00
2023-02-09T00:20:19.044Z,14.40
2023-02-09T00:22:51.040Z,14.00
2023-02-09T00:25:22.939Z,14.60
2023-02-09T00:27:54.906Z,13.20
2023-02-09T00:30:26.850Z,13.40
2023-02-09T00:32:58.758Z,13.40
2023-02-09T00:35:30.688Z,14.00
2023-02-09T00:38:02.614Z,13.70
2023-02-09T00:40:34.807Z,12.70
2023-02-09T00:43:07.811Z,13.40
2023-02-09T00:48:11.588Z,13.00
2023-02-09T00:50:43.741Z,12.80
2023-02-09T00:53:15.832Z,13.90
2023-02-09T00:55:48.180Z,13.00
2023-02-09T00:58:20.352Z,14.10
2023-02-09T01:00:52.296Z,12.40
2023-02-09T01:03:24.271Z,13.40
2023-02-09T01:05:59.538Z,12.90
2023-02-09T01:08:33.259Z,14.40
2023-02-09T01:11:12.587Z,12.40
2023-02-09T01:13:45.559Z,12.30
2023-02-09T01:16:18.736Z,12.80
2023-02-09T01:18:50.801Z,13.20
2023-02-09T01:21:23.490Z,12.20
2023-02-09T01:23:55.675Z,12.90
2023-02-09T01:26:27.950Z,13.60
2023-02-09T01:28:59.886Z,12.70
2023-02-09T01:31:34.569Z,13.00
2023-02-09T01:34:06.594Z,13.30
2023-02-09T01:36:38.685Z,14.10
2023-02-09T01:39:12.143Z,12.10
2023-02-09T01:41:45.348Z,13.40
2023-02-09T01:44:17.269Z,12.80
2023-02-09T01:46:51.742Z,14.00
2023-02-09T01:49:28.278Z,12.80
2023-02-09T01:52:03.393Z,13.30
2023-02-09T01:54:43.961Z,12.60
2023-02-09T01:57:22.787Z,13.10
2023-02-09T02:00:00.305Z,13.30
2023-02-09T02:02:34.013Z,13.70
2023-02-09T02:05:08.210Z,12.30
2023-02-09T02:08:04.125Z,12.90
2023-02-09T02:10:36.235Z,13.30
2023-02-09T02:13:08.280Z,13.10
2023-02-09T02:16:04.727Z,12.60
2023-02-09T02:19:14.534Z,13.00
2023-02-09T02:21:58.424Z,12.40
2023-02-09T02:24:32.993Z,13.50
2023-02-09T02:27:09.505Z,13.00
2023-02-09T02:30:04.250Z,12.40
2023-02-09T02:32:41.263Z,12.40
2023-02-09T02:35:25.853Z,12.70
2023-02-09T02:38:33.209Z,12.90
2023-02-09T02:41:26.256Z,11.90
2023-02-09T02:44:13.516Z,12.20
2023-02-09T02:46:49.072Z,12.30
2023-02-09T02:49:43.944Z,12.20
2023-02-09T02:52:15.852Z,12.20
2023-02-09T02:55:03.765Z,12.20
2023-02-09T02:57:39.171Z,11.70
2023-02-09T03:00:14.673Z,11.90
2023-02-09T03:02:49.839Z,11.00
2023-02-09T03:05:24.331Z,11.60
2023-02-09T03:07:56.500Z,11.10
2023-02-09T03:10:34.868Z,10.90
2023-02-09T03:13:11.700Z,11.80
2023-02-09T03:16:02.060Z,11.40
2023-02-09T03:18:46.234Z,11.60
2023-02-09T03:21:27.370Z,10.90
2023-02-09T03:24:04.150Z,10.80
2023-02-09T03:27:03.679Z,11.60
2023-02-09T03:29:37.145Z,10.30
2023-02-09T03:32:09.137Z,10.80
2023-02-09T03:34:41.061Z,11.20
2023-02-09T03:37:13.672Z,11.50
2023-02-09T03:39:45.635Z,11.20
2023-02-09T03:42:17.624Z,10.50
2023-02-09T03:44:49.619Z,11.00
2023-02-09T03:47:21.615Z,10.90
2023-02-09T03:49:53.544Z,10.50
2023-02-09T03:52:25.571Z,11.50
2023-02-09T03:54:57.484Z,10.20
2023-02-09T03:57:29.601Z,10.60
2023-02-09T04:00:01.874Z,11.10
2023-02-09T04:02:44.572Z,10.10
2023-02-09T04:05:16.628Z,11.60
2023-02-09T04:07:48.685Z,11.50
2023-02-09T04:10:20.654Z,11.00
2023-02-09T04:12:52.625Z,10.20
2023-02-09T04:15:24.596Z,11.40
2023-02-09T04:17:56.543Z,11.10
2023-02-09T04:20:28.551Z,10.70
2023-02-09T04:23:00.523Z,11.00
2023-02-09T04:25:32.540Z,10.40
2023-02-09T04:28:04.809Z,10.20
2023-02-09T04:30:36.908Z,9.80
2023-02-09T04:33:08.922Z,9.80
2023-02-09T04:35:40.819Z,10.60
2023-02-09T04:38:12.748Z,10.60
2023-02-09T04:40:44.835Z,11.40
2023-02-09T04:43:18.020Z,10.30
2023-02-09T04:48:24.129Z,10.60
2023-02-09T04:50:56.212Z,10.30
2023-02-09T04:53:29.809Z,10.50
2023-02-09T04:56:01.987Z,10.40
2023-02-09T04:58:52.438Z,10.80
2023-02-09T05:01:25.163Z,10.40
2023-02-09T05:03:57.159Z,9.90
2023-02-09T05:06:29.175Z,10.50
2023-02-09T05:09:01.059Z,10.90
2023-02-09T05:11:32.992Z,10.60
2023-02-09T05:14:04.938Z,10.70
2023-02-09T05:16:39.112Z,10.30
2023-02-09T05:19:11.527Z,10.90
2023-02-09T05:21:43.467Z,9.50
2023-02-09T05:24:15.445Z,10.00
2023-02-09T05:26:47.317Z,11.20
2023-02-09T05:29:20.883Z,11.00
2023-02-09T05:31:54.199Z,10.10
2023-02-09T05:34:26.176Z,11.00
2023-02-09T05:36:58.041Z,10.80
2023-02-09T05:39:30.004Z,11.10
2023-02-09T05:42:17.447Z,10.20
2023-02-09T05:44:51.223Z,10.40
2023-02-09T05:47:24.929Z,11.10
2023-02-09T05:49:56.872Z,10.10
2023-02-09T05:52:28.912Z,10.50
2023-02-09T05:55:00.814Z,10.60
2023-02-09T05:57:32.888Z,11.70
2023-02-09T06:00:06.379Z,11.10
2023-02-09T06:02:43.827Z,10.70
2023-02-09T06:05:15.840Z,10.50
2023-02-09T06:07:48.684Z,10.50
2023-02-09T06:10:20.805Z,10.50
2023-02-09T06:12:52.845Z,9.60
2023-02-09T06:15:24.819Z,11.00
2023-02-09T06:17:56.797Z,10.60
2023-02-09T06:20:28.833Z,10.80
2023-02-09T06:23:00.800Z,11.10
2023-02-09T06:25:32.675Z,11.40
2023-02-09T06:28:04.687Z,10.60
2023-02-09T06:30:36.694Z,11.70
2023-02-09T06:33:08.688Z,11.20
2023-02-09T06:35:40.566Z,10.80
2023-02-09T06:38:13.114Z,10.90
2023-02-09T06:40:46.061Z,11.30
2023-02-09T06:43:18.611Z,10.70
2023-02-09T06:45:50.567Z,11.80
2023-02-09T06:48:22.566Z,10.70
2023-02-09T06:50:54.681Z,11.60
2023-02-09T06:53:26.830Z,11.10
2023-02-09T06:56:02.233Z,10.50
2023-02-09T06:58:34.970Z,12.20
2023-02-09T07:01:10.108Z,11.60
2023-02-09T07:03:42.921Z,12.00
2023-02-09T07:06:21.556Z,11.50
2023-02-09T07:08:53.802Z,11.40
2023-02-09T07:11:25.742Z,11.20
2023-02-09T07:13:57.784Z,11.20
2023-02-09T07:16:29.729Z,12.20
2023-02-09T07:19:01.765Z,11.30
2023-02-09T07:21:33.682Z,10.80
2023-02-09T07:24:05.809Z,11.00
2023-02-09T07:26:37.732Z,11.90
2023-02-09T07:29:11.452Z,10.60
2023-02-09T07:31:44.874Z,11.10
2023-02-09T07:34:17.273Z,11.20
2023-02-09T07:36:49.596Z,11.90
2023-02-09T07:39:21.625Z,11.80
2023-02-09T07:41:53.752Z,11.90
2023-02-09T07:44:27.098Z,11.30
2023-02-09T07:46:59.009Z,12.50
2023-02-09T07:49:30.909Z,12.80
2023-02-09T07:52:02.881Z,11.90
2023-02-09T07:54:34.823Z,11.20
2023-02-09T07:57:06.647Z,12.10
2023-02-09T07:59:38.644Z,12.70
2023-02-09T08:02:18.701Z,12.30
2023-02-09T08:04:50.792Z,12.50
2023-02-09T08:07:22.636Z,11.60
2023-02-09T08:09:54.646Z,12.70
2023-02-09T08:12:47.810Z,13.50
2023-02-09T08:17:54.709Z,11.80
2023-02-09T08:20:28.454Z,12.80
2023-02-09T08:23:05.389Z,12.50
2023-02-09T08:25:37.841Z,12.10
2023-02-09T08:28:09.830Z,12.70
2023-02-09T08:30:41.925Z,13.40
2023-02-09T08:33:14.000Z,13.40
2023-02-09T08:35:46.926Z,11.40
2023-02-09T08:38:20.059Z,13.70
2023-02-09T08:40:52.055Z,13.30
2023-02-09T08:43:24.055Z,12.90
2023-02-09T08:45:56.209Z,12.90
2023-02-09T08:48:31.222Z,12.30
2023-02-09T08:51:04.101Z,12.60
2023-02-09T08:53:36.080Z,13.00
2023-02-09T08:56:09.009Z,11.70
2023-02-09T08:58:40.981Z,12.80
2023-02-09T09:01:13.992Z,12.50
2023-02-09T09:03:46.271Z,12.80
2023-02-09T09:06:18.211Z,12.90
2023-02-09T09:08:51.904Z,12.80
2023-02-09T09:11:23.934Z,12.70
2023-02-09T09:13:55.914Z,12.60
2023-02-09T09:16:27.873Z,12.40
2023-02-09T09:19:00.364Z,12.70
2023-02-09T09:21:33.436Z,12.20
2023-02-09T09:24:05.472Z,11.90
2023-02-09T09:26:37.390Z,12.30
2023-02-09T09:29:10.061Z,12.20
2023-02-09T09:31:42.161Z,12.30
2023-02-09T09:34:14.095Z,12.90
2023-02-09T09:36:46.030Z,12.20
2023-02-09T09:39:19.055Z,12.00
2023-02-09T09:41:53.111Z,12.10
2023-02-09T09:44:38.325Z,12.00
2023-02-09T09:47:17.688Z,12.10
2023-02-09T09:49:49.953Z,11.90
2023-02-09T09:55:01.875Z,11.90
2023-02-09T09:57:34.817Z,12.40
2023-02-09T10:00:22.822Z,11.60
2023-02-09T10:02:54.862Z,12.20
2023-02-09T10:05:29.456Z,12.80
2023-02-09T10:08:27.542Z,12.40
2023-02-09T10:11:10.670Z,12.70
2023-02-09T10:13:53.860Z,11.90
2023-02-09T10:16:28.118Z,10.80
2023-02-09T10:19:06.217Z,11.80
2023-02-09T10:21:38.720Z,12.50
2023-02-09T10:24:16.762Z,11.60
2023-02-09T10:27:28.626Z,11.60
2023-02-09T10:30:27.526Z,11.70
2023-02-09T10:33:00.719Z,12.00
2023-02-09T10:35:43.648Z,11.30
2023-02-09T10:38:18.227Z,11.30
2023-02-09T10:40:51.120Z,11.20
2023-02-09T10:43:27.926Z,12.70
2023-02-09T10:46:02.752Z,11.90
2023-02-09T10:48:46.495Z,11.50
2023-02-09T10:51:29.519Z,11.20
2023-02-09T10:54:04.728Z,10.90
2023-02-09T10:56:42.738Z,11.20
2023-02-09T10:59:16.556Z,11.80
2023-02-09T11:01:59.468Z,11.70
2023-02-09T11:04:39.373Z,12.30
2023-02-09T11:07:18.307Z,11.20
2023-02-09T11:09:51.799Z,11.60
2023-02-09T11:12:24.791Z,11.40
2023-02-09T11:14:56.743Z,11.30
2023-02-09T11:17:40.263Z,10.80
2023-02-09T11:20:15.730Z,11.40
2023-02-09T11:23:14.391Z,12.00
2023-02-09T11:26:04.221Z,11.60
2023-02-09T11:28:42.310Z,11.40
2023-02-09T11:31:36.332Z,11.00
2023-02-09T11:34:34.065Z,11.20
2023-02-09T11:37:25.463Z,12.00
2023-02-09T11:40:15.882Z,11.00
2023-02-09T11:42:56.477Z,10.80
2023-02-09T11:45:42.679Z,11.60
2023-02-09T11:48:26.170Z,11.50
2023-02-09T11:51:13.535Z,11.20
2023-02-09T11:54:04.097Z,11.00
2023-02-09T11:56:41.914Z,12.10
2023-02-09T11:59:37.188Z,10.60
2023-02-09T12:02:23.612Z,11.10
2023-02-09T12:05:01.357Z,10.50
2023-02-09T12:07:58.404Z,10.30
2023-02-09T12:10:38.889Z,11.00
2023-02-09T12:13:25.892Z,10.40
2023-02-09T12:16:04.598Z,10.70
2023-02-09T12:18:37.012Z,10.60
2023-02-09T12:21:09.004Z,10.50
2023-02-09T12:23:42.988Z,10.90
2023-02-09T12:26:17.952Z,10.20
2023-02-09T12:29:16.994Z,10.30
2023-02-09T12:32:04.310Z,10.40
2023-02-09T12:34:46.153Z,10.40
2023-02-09T12:37:28.017Z,10.20
2023-02-09T12:40:21.273Z,10.60
2023-02-09T12:42:53.120Z,10.70
2023-02-09T12:45:41.777Z,10.40
2023-02-09T12:48:17.771Z,9.70
2023-02-09T12:50:55.074Z,10.80
2023-02-09T12:53:34.827Z,10.30
2023-02-09T12:56:06.728Z,10.00
2023-02-09T13:01:17.092Z,9.90
2023-02-09T13:04:05.522Z,10.20
2023-02-09T13:06:55.497Z,10.30
2023-02-09T13:09:33.169Z,10.50
2023-02-09T13:12:14.824Z,10.20
2023-02-09T13:14:50.243Z,10.50
2023-02-09T13:17:27.101Z,10.70
2023-02-09T13:20:28.740Z,10.20
2023-02-09T13:23:20.765Z,10.50
2023-02-09T13:26:00.783Z,9.90
2023-02-09T13:28:32.823Z,10.70
2023-02-09T13:31:22.196Z,10.20
2023-02-09T13:33:59.459Z,9.70
2023-02-09T13:36:49.646Z,10.10
2023-02-09T13:39:24.939Z,10.20
2023-02-09T13:41:56.902Z,10.30
2023-02-09T13:44:32.274Z,10.00
2023-02-09T13:47:07.334Z,10.00
2023-02-09T13:49:39.285Z,10.30
2023-02-09T13:52:23.758Z,10.00
2023-02-09T13:54:55.831Z,9.10
2023-02-09T13:57:36.543Z,9.20
2023-02-09T14:00:21.118Z,9.60
2023-02-09T14:03:12.471Z,9.20
2023-02-09T14:05:49.431Z,9.50
2023-02-09T14:08:22.591Z,9.50
2023-02-09T14:11:00.635Z,9.10
2023-02-09T14:13:36.343Z,9.50
2023-02-09T14:16:09.311Z,9.50
2023-02-09T14:19:01.404Z,10.00
2023-02-09T14:21:40.368Z,9.60
2023-02-09T14:24:15.042Z,9.60
2023-02-09T14:27:04.172Z,8.60
2023-02-09T14:29:37.220Z,9.00
2023-02-09T14:32:32.395Z,9.50
2023-02-09T14:35:42.231Z,8.90
2023-02-09T14:38:39.991Z,9.40
2023-02-09T14:41:30.328Z,9.50
2023-02-09T14:44:03.788Z,9.40
2023-02-09T14:47:00.544Z,9.10
2023-02-09T14:49:32.437Z,9.30
2023-02-09T14:52:10.754Z,9.70
2023-02-09T14:54:47.635Z,9.20
2023-02-09T14:57:20.479Z,10.10
2023-02-09T15:02:27.568Z,9.60
2023-02-09T15:05:00.477Z,9.50
2023-02-09T15:07:35.736Z,9.40
2023-02-09T15:10:20.373Z,8.90
2023-02-09T15:12:52.537Z,8.70
2023-02-09T15:15:25.897Z,9.70
2023-02-09T15:17:59.908Z,9.20
2023-02-09T15:20:32.730Z,8.80
2023-02-09T15:23:04.679Z,8.90
2023-02-09T15:25:38.178Z,9.20
2023-02-09T15:28:29.459Z,9.30
2023-02-09T15:31:01.604Z,8.60
2023-02-09T15:33:33.683Z,9.40
2023-02-09T15:36:05.952Z,9.40
2023-02-09T15:38:37.912Z,9.50
2023-02-09T15:41:29.735Z,9.20
2023-02-09T15:44:30.906Z,8.80
2023-02-09T15:47:21.569Z,8.40
2023-02-09T15:49:53.543Z,9.30
2023-02-09T15:52:25.520Z,8.90
2023-02-09T15:54:58.248Z,10.10
2023-02-09T15:57:30.250Z,9.30
2023-02-09T16:00:02.403Z,9.00
2023-02-09T16:02:36.912Z,8.70
2023-02-09T16:05:08.876Z,9.30
2023-02-09T16:07:40.788Z,9.40
2023-02-09T16:10:27.319Z,9.50
2023-02-09T16:12:59.812Z,9.10
2023-02-09T16:15:31.778Z,9.00
2023-02-09T16:18:03.623Z,9.70
2023-02-09T16:20:36.160Z,8.80
2023-02-09T16:23:20.170Z,8.60
2023-02-09T16:25:53.809Z,9.10
2023-02-09T16:28:25.790Z,9.50
2023-02-09T16:30:58.198Z,9.40
2023-02-09T16:33:30.167Z,8.60
2023-02-09T16:36:02.865Z,9.00
2023-02-09T16:38:34.868Z,9.20
2023-02-09T16:41:26.760Z,8.80
2023-02-09T16:43:59.966Z,8.60
2023-02-09T16:46:32.807Z,8.80
2023-02-09T16:51:36.574Z,8.40
2023-02-09T16:54:10.251Z,8.30
2023-02-09T16:56:52.723Z,9.40
2023-02-09T16:59:25.913Z,8.10
2023-02-09T17:02:00.106Z,7.50
2023-02-09T17:04:32.131Z,8.70
2023-02-09T17:07:04.020Z,8.10
2023-02-09T17:09:35.960Z,8.70
2023-02-09T17:12:12.059Z,9.10
2023-02-09T17:14:43.943Z,8.30
2023-02-09T17:17:20.863Z,8.60
2023-02-09T17:19:59.727Z,9.10
2023-02-09T17:22:32.084Z,8.90
2023-02-09T17:25:04.246Z,8.00
2023-02-09T17:27:36.152Z,8.20
2023-02-09T17:30:09.913Z,8.50
2023-02-09T17:32:42.950Z,8.70
2023-02-09T17:35:38.275Z,8.50
2023-02-09T17:38:28.096Z,8.40
2023-02-09T17:41:02.305Z,8.20
2023-02-09T17:43:34.433Z,8.00
2023-02-09T17:46:08.176Z,8.40
2023-02-09T17:48:40.246Z,7.80
2023-02-09T17:51:36.949Z,8.20
2023-02-09T17:54:19.036Z,8.10
2023-02-09T17:56:51.023Z,8.20
2023-02-09T17:59:22.983Z,8.10
2023-02-09T18:01:56.441Z,8.80
2023-02-09T18:04:28.872Z,8.50
2023-02-09T18:07:02.358Z,8.60
2023-02-09T18:09:34.329Z,9.00
2023-02-09T18:12:32.555Z,9.00
2023-02-09T18:15:06.873Z,8.60
2023-02-09T18:17:42.460Z,8.00
2023-02-09T18:20:22.673Z,8.90
2023-02-09T18:22:55.551Z,8.60
2023-02-09T18:28:01.788Z,8.00
2023-02-09T18:35:41.358Z,7.20
2023-02-09T18:38:15.265Z,8.20
2023-02-09T18:40:47.280Z,8.40
2023-02-09T18:43:19.294Z,8.90
2023-02-09T18:45:51.193Z,9.60
2023-02-09T18:48:23.097Z,9.00
2023-02-09T18:50:55.085Z,9.00
2023-02-09T18:53:26.999Z,8.70
2023-02-09T18:55:58.970Z,9.40
2023-02-09T18:58:30.820Z,8.80
2023-02-09T19:01:02.778Z,9.00
2023-02-09T19:03:34.753Z,9.10
2023-02-09T19:06:11.032Z,9.20
2023-02-09T19:08:43.071Z,8.90
2023-02-09T19:11:17.041Z,9.20
2023-02-09T19:14:08.259Z,9.30
2023-02-09T19:16:41.437Z,8.70
2023-02-09T19:19:13.704Z,9.50
2023-02-09T19:21:45.726Z,9.50
2023-02-09T19:24:18.738Z,9.80
2023-02-09T19:26:50.660Z,10.00
2023-02-09T19:29:25.962Z,8.40
2023-02-09T19:31:57.865Z,9.50
2023-02-09T19:34:36.382Z,9.10
2023-02-09T19:37:08.659Z,9.00
2023-02-09T19:39:41.747Z,10.00
2023-02-09T19:42:14.725Z,9.20
2023-02-09T19:44:46.843Z,9.70
2023-02-09T19:47:25.843Z,9.00
2023-02-09T19:49:58.815Z,9.40
2023-02-09T19:55:03.102Z,9.00
2023-02-09T19:57:35.110Z,8.90
2023-02-09T20:00:07.801Z,9.30
2023-02-09T20:02:40.343Z,9.20
2023-02-09T20:05:12.495Z,9.60
2023-02-09T20:07:44.530Z,9.50
2023-02-09T20:10:16.498Z,10.00
2023-02-09T20:12:48.430Z,9.40
2023-02-09T20:15:20.355Z,9.80
2023-02-09T20:17:52.366Z,10.10
2023-02-09T20:20:24.346Z,10.20
2023-02-09T20:22:56.344Z,9.80
2023-02-09T20:25:28.283Z,9.70
2023-02-09T20:28:00.575Z,10.00
2023-02-09T20:30:32.500Z,10.20
2023-02-09T20:33:04.442Z,9.90
2023-02-09T20:35:44.336Z,10.00
2023-02-09T20:38:16.337Z,9.70
2023-02-09T20:40:48.787Z,8.60
2023-02-09T20:43:39.760Z,9.20
2023-02-09T20:46:39.247Z,9.50
2023-02-09T20:49:13.884Z,9.50
2023-02-09T20:51:46.254Z,10.10
2023-02-09T20:54:18.238Z,10.10
2023-02-09T20:56:50.375Z,10.10
2023-02-09T20:59:22.345Z,9.90
2023-02-09T21:01:54.272Z,9.40
2023-02-09T21:04:27.299Z,9.50
2023-02-09T21:07:00.562Z,9.70
2023-02-09T21:09:32.513Z,10.00
2023-02-09T21:12:04.576Z,10.20
2023-02-09T21:14:44.188Z,10.40
2023-02-09T21:17:16.816Z,9.70
2023-02-09T21:19:48.760Z,10.00
2023-02-09T21:22:20.723Z,9.90
2023-02-09T21:24:52.660Z,9.40
2023-02-09T21:27:26.388Z,10.20
2023-02-09T21:29:58.340Z,9.90
2023-02-09T21:32:30.378Z,10.00
2023-02-09T21:35:02.313Z,10.00
2023-02-09T21:37:34.189Z,9.60
2023-02-09T21:40:07.349Z,10.50
2023-02-09T21:42:39.987Z,10.00
2023-02-09T21:45:12.139Z,9.90
2023-02-09T21:47:44.039Z,10.10
2023-02-09T21:50:15.964Z,10.00
2023-02-09T21:52:50.110Z,10.20
2023-02-09T21:55:22.323Z,9.30
2023-02-09T21:57:54.205Z,9.50
2023-02-09T22:00:26.197Z,10.50
2023-02-09T22:02:58.065Z,9.50
2023-02-09T22:05:30.002Z,10.20
2023-02-09T22:08:01.856Z,10.40
2023-02-09T22:10:33.781Z,9.80
2023-02-09T22:13:08.680Z,10.40
2023-02-09T22:15:44.427Z,9.80
2023-02-09T22:18:16.290Z,9.80
2023-02-09T22:20:48.863Z,9.70
2023-02-09T22:23:21.120Z,10.00
2023-02-09T22:26:00.287Z,9.80
2023-02-09T22:28:35.860Z,10.30
2023-02-09T22:31:11.389Z,10.30
2023-02-09T22:33:43.512Z,10.60
2023-02-09T22:36:17.582Z,10.70
2023-02-09T22:38:49.543Z,10.20
2023-02-09T22:41:23.332Z,10.30
2023-02-09T22:44:01.442Z,10.40
2023-02-09T22:46:38.432Z,10.20
2023-02-09T22:49:19.143Z,9.90
2023-02-09T22:51:51.261Z,9.40
2023-02-09T22:54:23.213Z,10.10
2023-02-09T22:56:55.170Z,10.50
2023-02-09T22:59:27.175Z,10.80
2023-02-09T23:01:59.075Z,10.50
2023-02-09T23:04:32.333Z,11.10
2023-02-09T23:07:05.165Z,10.80
2023-02-09T23:09:37.241Z,9.90
2023-02-09T23:12:09.258Z,9.50
2023-02-09T23:14:41.236Z,9.10
2023-02-09T23:17:13.233Z,9.40
2023-02-09T23:19:45.295Z,9.70
2023-02-09T23:22:17.257Z,10.20
2023-02-09T23:24:49.220Z,10.90
2023-02-09T23:27:21.164Z,10.30
2023-02-09T23:29:54.923Z,9.80
2023-02-09T23:32:26.940Z,9.70
2023-02-09T23:37:38.293Z,9.30
2023-02-09T23:40:11.155Z,9.40
2023-02-09T23:42:43.121Z,10.10
2023-02-09T23:45:15.183Z,9.30
2023-02-09T23:47:47.164Z,9.70
2023-02-09T23:50:19.171Z,9.00
2023-02-09T23:52:51.106Z,9.70
2023-02-09T23:55:23.037Z,9.00
2023-02-09T23:57:54.913Z,9.20
